首页
METAR-TAF:

METAR-TAF

机场 :

Panama City, 佛罗里达州, 美国

纬度: 30-21-30N, 经度: 85-47-44W, 海拔: 5米

当前天气观测

该预报发布于1小时和3分钟前的08:53 UTC
风速10节,风向东转东北,有时为18节阵风
温度 26°C
湿度 79%
气压 1016 hPa
能見度: 16.1公里
多云层高于6000英尺

METAR: KECP 190853Z AUTO 06010G18KT 10SM BKN060 26/22 A2999 RMK AO1 SLP166 T02610217 56005

时间: 04:56 (09:56 UTC)

预报

该预报发布于4小时和32分钟前的05:24 UTC
预报有效从19日的 06点(UTC)到 20日的 06点(UTC)
风速10节,风向,有时为15节阵风
能見度: 10公里
散云层高于15000英尺
从 19日的 1300点(UTC)
风速14节,风向,有时为24节阵风
能見度: 10公里
少量云层高于3500英尺
散云层高于15000英尺
从 19日的 2100点(UTC)
风速10节,风向
能見度: 10公里
散云层高于5000英尺
散云层高于15000英尺
附近有阵雨,

TAF: KECP 190524Z 1906/2006 08010G15KT P6SM SCT150 FM191300 08014G24KT P6SM FEW035 SCT150 FM192100 08010KT P6SM VCSH SCT050 SCT150

超过4000个机场的气象观测和天气预报(METAR&TAF报告)。

可查询的气象台以黄色和红色小点在地图上表示。

将鼠标移到小点上方,可查看气象台名称。

然后点击查看天气观测和预报。

如需切换地图:点击带黑十字的绿色按钮放大地图;点击带横线的绿色按钮缩小地图;或者点击绿色箭头查看邻近地区的地图。


METAR-TAF: